Carnival Spirit — 9HA3097 — position and weather

sailwx.info

Track history (hours):
 
Tides and Currents Weather Stations Pressure Air Temp Water Temp Dewpoint Dewpoint Depression Visibility Wind Speed Wind Dir Waves Ship Positions

Carnival Spirit

Last reported at 2019-Dec-08 13:00 UTC. Time now 2019-Dec-12 07:54 UTC.
Position S 33°11' E 152°08'.

Length 293 m; draft 8.5 m.

Type: Ship. MMSI: 229136000.

Date/timePositionNaut miles runAvg speedWind from/ knotsBaromVisibWave heightAir tempDewpointWater temp
2019-Dec-08 13:00S 33°11' E 152°08'2311.7
2019-Dec-08 11:00S 32°53' E 152°26'1211.7
2019-Dec-08 10:00S 32°44' E 152°36'1312.9
2019-Dec-08 09:00S 32°35' E 152°46'3 0.1
2019-Dec-06 15:57S 32°35' E 152°50'13 9.2
2019-Dec-06 14:30S 32°45' E 152°39'510.0
2019-Dec-06 14:00S 32°49' E 152°36'1111.1
2019-Dec-06 13:00S 32°56' E 152°26'611.8
2019-Dec-06 12:30S 32°60' E 152°20'611.7
2019-Dec-06 12:00S 33°03' E 152°15'1111.5
2019-Dec-06 11:00S 33°12' E 152°05'4611.5
2019-Dec-06 07:00S 33°48' E 151°32'5 9.7
2019-Dec-06 06:31S 33°50' E 151°27'12 1.1
2019-Dec-05 19:12S 33°52' E 151°13'5 6.1
2019-Dec-05 18:26S 33°50' E 151°18'9 9.6
2019-Dec-05 17:31S 33°46' E 151°27'1111.1
2019-Dec-05 16:29S 33°38' E 151°37'1111.7
2019-Dec-05 15:30S 33°30' E 151°47'2914.6
2019-Dec-05 13:30S 33°12' E 152°15'612.3
2019-Dec-05 13:00S 33°08' E 152°20'6817.1
2019-Dec-05 09:00S 32°14' E 153°09'5317.5
2019-Dec-05 06:00S 31°28' E 153°41'916.6
2019-Dec-05 05:29S 31°21' E 153°46'  
Track history (hours):
 
Tides and Currents Weather Stations Pressure Air Temp Water Temp Dewpoint Dewpoint Depression Visibility Wind Speed Wind Dir Waves Ship Positions

Carnival Spirit

Last reported at 2019-Dec-08 13:00 UTC. Time now 2019-Dec-12 07:54 UTC.
Position S 33°11' E 152°08'.

Length 293 m; draft 8.5 m.

Type: Ship. MMSI: 229136000.

Date/timePositionNaut miles runAvg speedWind from/ knotsBaromVisibWave heightAir tempDewpointWater temp
2019-Dec-08 13:00S 33°11' E 152°08'2311.7
2019-Dec-08 11:00S 32°53' E 152°26'1211.7
2019-Dec-08 10:00S 32°44' E 152°36'1312.9
2019-Dec-08 09:00S 32°35' E 152°46'3 0.1
2019-Dec-06 15:57S 32°35' E 152°50'13 9.2
2019-Dec-06 14:30S 32°45' E 152°39'510.0
2019-Dec-06 14:00S 32°49' E 152°36'1111.1
2019-Dec-06 13:00S 32°56' E 152°26'611.8
2019-Dec-06 12:30S 32°60' E 152°20'611.7
2019-Dec-06 12:00S 33°03' E 152°15'1111.5
2019-Dec-06 11:00S 33°12' E 152°05'4611.5
2019-Dec-06 07:00S 33°48' E 151°32'5 9.7
2019-Dec-06 06:31S 33°50' E 151°27'12 1.1
2019-Dec-05 19:12S 33°52' E 151°13'5 6.1
2019-Dec-05 18:26S 33°50' E 151°18'9 9.6
2019-Dec-05 17:31S 33°46' E 151°27'1111.1
2019-Dec-05 16:29S 33°38' E 151°37'1111.7
2019-Dec-05 15:30S 33°30' E 151°47'2914.6
2019-Dec-05 13:30S 33°12' E 152°15'612.3
2019-Dec-05 13:00S 33°08' E 152°20'6817.1
2019-Dec-05 09:00S 32°14' E 153°09'5317.5
2019-Dec-05 06:00S 31°28' E 153°41'916.6
2019-Dec-05 05:29S 31°21' E 153°46'  

Dump ship's entire track history